createdAt,value
2023-03-28T00:00:32.563Z,-5.20
2023-03-28T00:11:12.889Z,-5.20
2023-03-28T00:16:16.607Z,-5.20
2023-03-28T00:21:25.035Z,-5.30
2023-03-28T00:26:30.047Z,-5.20
2023-03-28T00:31:35.262Z,-5.30
2023-03-28T00:41:44.423Z,-5.30
2023-03-28T00:46:47.580Z,-5.40
2023-03-28T00:51:58.383Z,-5.30
2023-03-28T00:57:02.899Z,-5.30
2023-03-28T01:07:08.975Z,-5.10
2023-03-28T01:12:16.547Z,-5.00
2023-03-28T01:17:19.858Z,-4.70
2023-03-28T01:27:45.790Z,-4.10
2023-03-28T01:32:53.087Z,-3.40
2023-03-28T01:43:06.007Z,-2.50
2023-03-28T01:48:26.653Z,-2.50
2023-03-28T01:53:53.231Z,-2.50
2023-03-28T01:59:07.673Z,-2.60
2023-03-28T02:04:31.099Z,-2.40
2023-03-28T02:09:37.939Z,-2.10
2023-03-28T02:14:43.455Z,-1.90
2023-03-28T02:20:11.942Z,-1.40
2023-03-28T02:25:52.881Z,-1.20
2023-03-28T02:31:14.341Z,-1.10
2023-03-28T02:36:38.522Z,-1.10
2023-03-28T02:41:50.433Z,-1.00
2023-03-28T02:47:21.747Z,-0.80
2023-03-28T02:52:37.076Z,-0.60
2023-03-28T02:57:48.877Z,-0.60
2023-03-28T03:02:52.085Z,-0.60
2023-03-28T03:07:54.909Z,-0.60
2023-03-28T03:12:59.410Z,-0.40
2023-03-28T03:18:02.225Z,-0.40
2023-03-28T03:23:08.867Z,-0.30
2023-03-28T03:28:11.884Z,-0.40
2023-03-28T03:33:16.837Z,-0.60
2023-03-28T03:38:22.097Z,-0.70
2023-03-28T03:43:24.994Z,-0.60
2023-03-28T03:48:27.718Z,2.50
2023-03-28T03:53:35.419Z,-0.60
2023-03-28T03:58:43.037Z,-1.10
2023-03-28T04:03:48.065Z,-0.90
2023-03-28T04:08:58.096Z,-0.90
2023-03-28T04:14:21.481Z,-0.90
2023-03-28T04:19:25.748Z,-1.00
2023-03-28T04:24:28.782Z,-1.10
2023-03-28T04:29:54.068Z,-1.00
2023-03-28T04:35:16.860Z,-1.00
2023-03-28T04:40:22.173Z,-0.70
2023-03-28T04:45:35.026Z,-0.30
2023-03-28T04:50:53.142Z,-0.10
2023-03-28T04:55:55.787Z,0.10
2023-03-28T05:01:03.856Z,0.20
2023-03-28T05:06:32.969Z,3.50
2023-03-28T05:11:37.382Z,0.40
2023-03-28T05:16:40.478Z,0.40
2023-03-28T05:22:01.844Z,0.60
2023-03-28T05:27:05.270Z,0.70
2023-03-28T05:32:09.170Z,0.60
2023-03-28T05:37:12.063Z,0.60
2023-03-28T05:42:26.032Z,0.70
2023-03-28T05:47:28.810Z,0.70
2023-03-28T05:52:33.164Z,0.80
2023-03-28T05:57:40.595Z,0.90
2023-03-28T06:02:43.815Z,0.90
2023-03-28T06:07:46.956Z,0.80
2023-03-28T06:12:52.571Z,1.10
2023-03-28T06:17:55.466Z,1.40
2023-03-28T06:22:58.123Z,1.40
2023-03-28T06:28:01.128Z,1.50
2023-03-28T06:33:05.475Z,1.50
2023-03-28T06:38:08.137Z,1.40
2023-03-28T06:43:11.990Z,1.40
2023-03-28T06:48:22.498Z,1.30
2023-03-28T06:53:43.482Z,1.70
2023-03-28T06:58:46.099Z,1.60
2023-03-28T07:03:52.449Z,1.50
2023-03-28T07:08:58.880Z,1.00
2023-03-28T07:14:12.767Z,0.80
2023-03-28T07:19:15.853Z,0.10
2023-03-28T07:24:22.023Z,-0.50
2023-03-28T07:29:41.269Z,-0.80
2023-03-28T07:34:44.154Z,-0.80
2023-03-28T07:39:51.746Z,-0.50
2023-03-28T07:44:57.639Z,0.10
2023-03-28T07:55:03.629Z,0.20
2023-03-28T08:00:13.197Z,0.70
2023-03-28T08:05:16.331Z,0.80
2023-03-28T08:10:19.564Z,0.90
2023-03-28T08:15:22.686Z,0.70
2023-03-28T08:20:25.412Z,0.90
2023-03-28T08:25:44.749Z,1.10
2023-03-28T08:31:10.759Z,1.40
2023-03-28T08:36:15.051Z,1.40
2023-03-28T08:41:41.341Z,1.40
2023-03-28T08:46:49.903Z,1.50
2023-03-28T08:51:57.964Z,2.00
2023-03-28T08:57:04.936Z,1.80
2023-03-28T09:02:28.533Z,1.90
2023-03-28T09:07:50.261Z,2.70
2023-03-28T09:12:56.259Z,2.50
2023-03-28T09:18:23.050Z,2.70
2023-03-28T09:24:04.133Z,2.70
2023-03-28T09:29:14.737Z,2.30
2023-03-28T09:34:39.643Z,2.40
2023-03-28T09:39:49.504Z,2.40
2023-03-28T09:45:05.541Z,2.60
2023-03-28T09:50:27.167Z,2.20
2023-03-28T09:55:35.716Z,2.30
2023-03-28T10:00:44.617Z,2.00
2023-03-28T10:06:29.078Z,2.10
2023-03-28T10:11:49.028Z,2.30
2023-03-28T10:16:53.285Z,2.40
2023-03-28T10:22:13.011Z,2.10
2023-03-28T10:27:29.113Z,2.10
2023-03-28T10:32:32.335Z,2.30
2023-03-28T10:37:57.024Z,2.80
2023-03-28T10:43:14.594Z,2.80
2023-03-28T10:48:37.774Z,3.30
2023-03-28T10:54:22.713Z,2.90
2023-03-28T10:59:26.277Z,2.90
2023-03-28T11:05:19.164Z,2.30
2023-03-28T11:10:37.341Z,2.00
2023-03-28T11:16:12.765Z,2.00
2023-03-28T11:21:44.205Z,3.20
2023-03-28T11:27:29.030Z,3.20
2023-03-28T11:32:57.629Z,2.80
2023-03-28T11:38:08.458Z,2.30
2023-03-28T11:43:22.906Z,2.50
2023-03-28T11:53:35.417Z,3.00
2023-03-28T11:58:46.505Z,3.10
2023-03-28T12:04:21.540Z,3.20
2023-03-28T12:09:47.209Z,3.00
2023-03-28T12:15:02.491Z,3.50
2023-03-28T12:20:30.969Z,3.50
2023-03-28T12:26:06.653Z,3.70
2023-03-28T12:31:16.666Z,3.50
2023-03-28T12:36:38.893Z,1.50
2023-03-28T12:41:43.523Z,1.50
2023-03-28T12:46:51.537Z,1.50
2023-03-28T12:52:01.861Z,2.20
2023-03-28T12:57:42.715Z,2.80
2023-03-28T13:03:22.579Z,2.80
2023-03-28T13:09:05.646Z,2.10
2023-03-28T13:14:26.518Z,1.40
2023-03-28T13:19:52.929Z,1.70
2023-03-28T13:25:16.866Z,1.90
2023-03-28T13:30:26.306Z,2.90
2023-03-28T13:35:52.024Z,2.80
2023-03-28T13:41:06.436Z,2.70
2023-03-28T13:46:16.644Z,2.70
2023-03-28T13:51:23.742Z,2.80
2023-03-28T13:56:30.141Z,2.50
2023-03-28T14:01:47.634Z,2.00
2023-03-28T14:11:56.362Z,2.00
2023-03-28T14:17:06.292Z,2.10
2023-03-28T14:22:15.912Z,2.20
2023-03-28T14:27:48.950Z,2.20
2023-03-28T14:33:01.092Z,1.80
2023-03-28T14:38:06.309Z,1.40
2023-03-28T14:43:17.790Z,1.00
2023-03-28T14:48:24.835Z,1.20
2023-03-28T14:53:30.330Z,1.50
2023-03-28T14:58:36.933Z,1.60
2023-03-28T15:03:43.135Z,1.20
2023-03-28T15:08:46.769Z,1.40
2023-03-28T15:14:27.058Z,1.40
2023-03-28T15:19:37.389Z,1.20
2023-03-28T15:24:40.226Z,1.20
2023-03-28T15:34:55.846Z,0.90
2023-03-28T15:40:26.733Z,1.00
2023-03-28T15:50:38.594Z,0.80
2023-03-28T15:55:42.392Z,0.50
2023-03-28T16:00:49.332Z,0.20
2023-03-28T16:06:09.706Z,0.20
2023-03-28T16:11:24.000Z,0.40
2023-03-28T16:16:45.598Z,0.60
2023-03-28T16:37:10.545Z,0.90
2023-03-28T16:42:13.100Z,0.80
2023-03-28T16:47:16.167Z,0.80
2023-03-28T17:17:36.892Z,0.60
2023-03-28T17:37:49.535Z,0.20
2023-03-28T17:47:55.764Z,0.30
2023-03-28T17:52:59.002Z,0.30
2023-03-28T17:58:02.634Z,0.30
2023-03-28T18:08:30.281Z,0.30
2023-03-28T18:23:40.432Z,0.30
2023-03-28T18:33:47.299Z,0.30
2023-03-28T18:38:50.105Z,0.40
2023-03-28T18:49:00.811Z,0.20
2023-03-28T18:54:03.812Z,0.30
2023-03-28T18:59:06.454Z,0.10
2023-03-28T19:14:15.892Z,-0.20
2023-03-28T19:24:22.084Z,-0.40
2023-03-28T19:34:29.201Z,-0.60
2023-03-28T19:59:46.959Z,-1.20
2023-03-28T20:04:49.572Z,-1.10
2023-03-28T20:19:59.645Z,-1.50
2023-03-28T20:30:06.755Z,-1.70
2023-03-28T20:35:09.894Z,-1.70
2023-03-28T20:50:34.107Z,-2.00
2023-03-28T21:10:53.533Z,-2.60
2023-03-28T21:15:57.435Z,-3.00
2023-03-28T21:26:09.100Z,-3.40
2023-03-28T21:31:25.484Z,-3.50
2023-03-28T21:51:38.751Z,-3.90
2023-03-28T22:11:50.116Z,-4.00
2023-03-28T22:16:52.799Z,-4.30
2023-03-28T22:26:59.193Z,-4.50
2023-03-28T22:57:17.194Z,-4.90
2023-03-28T23:02:19.865Z,-5.00
2023-03-28T23:22:31.843Z,-4.90
2023-03-28T23:27:34.829Z,-5.00
2023-03-28T23:32:37.595Z,-4.80
2023-03-28T23:37:40.322Z,-4.90
2023-03-28T23:42:44.750Z,-5.00
2023-03-28T23:52:50.744Z,-4.80
2023-03-28T23:57:55.875Z,-4.80
